sensor_id;sensor_type;location;lat;lon;timestamp;P1;durP1;ratioP1;P2;durP2;ratioP2
30301;SDS011;17111;52.130;5.028;2023-12-22T00:02:17;30.83;;;17.50;;
30301;SDS011;17111;52.130;5.028;2023-12-22T00:04:44;29.35;;;17.17;;
30301;SDS011;17111;52.130;5.028;2023-12-22T00:07:11;30.23;;;17.55;;
30301;SDS011;17111;52.130;5.028;2023-12-22T00:09:38;26.98;;;15.98;;
30301;SDS011;17111;52.130;5.028;2023-12-22T00:12:04;29.30;;;17.02;;
30301;SDS011;17111;52.130;5.028;2023-12-22T00:14:31;26.38;;;16.48;;
30301;SDS011;17111;52.130;5.028;2023-12-22T00:16:57;24.67;;;15.52;;
30301;SDS011;17111;52.130;5.028;2023-12-22T00:19:24;28.45;;;16.70;;
30301;SDS011;17111;52.130;5.028;2023-12-22T00:21:51;27.83;;;16.33;;
30301;SDS011;17111;52.130;5.028;2023-12-22T00:24:17;26.95;;;15.82;;
30301;SDS011;17111;52.130;5.028;2023-12-22T00:26:44;26.33;;;15.32;;
30301;SDS011;17111;52.130;5.028;2023-12-22T00:29:11;24.45;;;14.40;;
30301;SDS011;17111;52.130;5.028;2023-12-22T00:31:37;26.88;;;15.25;;
30301;SDS011;17111;52.130;5.028;2023-12-22T00:34:04;23.05;;;13.80;;
30301;SDS011;17111;52.130;5.028;2023-12-22T00:36:31;21.92;;;13.05;;
30301;SDS011;17111;52.130;5.028;2023-12-22T00:38:58;22.98;;;13.48;;
30301;SDS011;17111;52.130;5.028;2023-12-22T00:41:24;22.10;;;12.98;;
30301;SDS011;17111;52.130;5.028;2023-12-22T00:43:51;22.98;;;13.38;;
30301;SDS011;17111;52.130;5.028;2023-12-22T00:46:18;23.90;;;13.60;;
30301;SDS011;17111;52.130;5.028;2023-12-22T00:48:46;22.90;;;12.57;;
30301;SDS011;17111;52.130;5.028;2023-12-22T00:51:12;19.77;;;12.30;;
30301;SDS011;17111;52.130;5.028;2023-12-22T00:53:39;19.52;;;11.95;;
30301;SDS011;17111;52.130;5.028;2023-12-22T00:56:06;22.60;;;12.85;;
30301;SDS011;17111;52.130;5.028;2023-12-22T00:58:33;19.38;;;11.45;;
30301;SDS011;17111;52.130;5.028;2023-12-22T01:00:59;19.95;;;12.30;;
30301;SDS011;17111;52.130;5.028;2023-12-22T01:03:26;21.02;;;12.55;;
30301;SDS011;17111;52.130;5.028;2023-12-22T01:05:53;18.05;;;10.65;;
30301;SDS011;17111;52.130;5.028;2023-12-22T01:08:20;18.35;;;10.93;;
30301;SDS011;17111;52.130;5.028;2023-12-22T01:10:47;19.98;;;10.70;;
30301;SDS011;17111;52.130;5.028;2023-12-22T01:13:14;15.77;;;9.40;;
30301;SDS011;17111;52.130;5.028;2023-12-22T01:15:40;17.45;;;9.52;;
30301;SDS011;17111;52.130;5.028;2023-12-22T01:18:10;15.88;;;9.75;;
30301;SDS011;17111;52.130;5.028;2023-12-22T01:20:37;15.43;;;8.63;;
30301;SDS011;17111;52.130;5.028;2023-12-22T01:23:04;16.38;;;9.70;;
30301;SDS011;17111;52.130;5.028;2023-12-22T01:25:30;17.38;;;8.68;;
30301;SDS011;17111;52.130;5.028;2023-12-22T01:27:57;17.83;;;8.75;;
30301;SDS011;17111;52.130;5.028;2023-12-22T01:30:23;14.80;;;7.78;;
30301;SDS011;17111;52.130;5.028;2023-12-22T01:32:50;14.60;;;8.63;;
30301;SDS011;17111;52.130;5.028;2023-12-22T01:35:17;12.45;;;7.60;;
30301;SDS011;17111;52.130;5.028;2023-12-22T01:37:43;15.45;;;8.55;;
30301;SDS011;17111;52.130;5.028;2023-12-22T01:40:10;11.85;;;7.38;;
30301;SDS011;17111;52.130;5.028;2023-12-22T01:42:37;13.82;;;8.02;;
30301;SDS011;17111;52.130;5.028;2023-12-22T01:45:03;16.10;;;8.07;;
30301;SDS011;17111;52.130;5.028;2023-12-22T01:47:30;14.95;;;8.48;;
30301;SDS011;17111;52.130;5.028;2023-12-22T01:49:57;13.35;;;7.70;;
30301;SDS011;17111;52.130;5.028;2023-12-22T01:52:24;12.50;;;7.43;;
30301;SDS011;17111;52.130;5.028;2023-12-22T01:54:52;14.50;;;8.27;;
30301;SDS011;17111;52.130;5.028;2023-12-22T01:57:21;11.30;;;7.03;;
30301;SDS011;17111;52.130;5.028;2023-12-22T01:59:48;14.05;;;7.43;;
30301;SDS011;17111;52.130;5.028;2023-12-22T02:02:15;12.10;;;7.20;;
30301;SDS011;17111;52.130;5.028;2023-12-22T02:04:43;14.73;;;7.38;;
30301;SDS011;17111;52.130;5.028;2023-12-22T02:07:11;12.57;;;7.72;;
30301;SDS011;17111;52.130;5.028;2023-12-22T02:09:38;13.45;;;6.93;;
30301;SDS011;17111;52.130;5.028;2023-12-22T02:12:05;13.55;;;7.03;;
30301;SDS011;17111;52.130;5.028;2023-12-22T02:14:31;13.32;;;6.70;;
30301;SDS011;17111;52.130;5.028;2023-12-22T02:19:48;12.10;;;7.00;;
30301;SDS011;17111;52.130;5.028;2023-12-22T02:22:15;14.48;;;6.65;;
30301;SDS011;17111;52.130;5.028;2023-12-22T02:24:41;10.75;;;5.93;;
30301;SDS011;17111;52.130;5.028;2023-12-22T02:32:43;10.65;;;6.00;;
30301;SDS011;17111;52.130;5.028;2023-12-22T02:35:16;10.35;;;5.38;;
30301;SDS011;17111;52.130;5.028;2023-12-22T02:37:47;9.43;;;5.07;;
30301;SDS011;17111;52.130;5.028;2023-12-22T02:40:15;11.85;;;5.20;;
30301;SDS011;17111;52.130;5.028;2023-12-22T02:42:43;10.25;;;5.13;;
30301;SDS011;17111;52.130;5.028;2023-12-22T02:45:14;11.23;;;4.97;;
30301;SDS011;17111;52.130;5.028;2023-12-22T02:47:42;10.05;;;4.65;;
30301;SDS011;17111;52.130;5.028;2023-12-22T02:50:10;9.68;;;4.72;;
30301;SDS011;17111;52.130;5.028;2023-12-22T02:52:38;10.38;;;4.50;;
30301;SDS011;17111;52.130;5.028;2023-12-22T02:55:05;7.88;;;4.35;;
30301;SDS011;17111;52.130;5.028;2023-12-22T02:57:32;9.93;;;4.72;;
30301;SDS011;17111;52.130;5.028;2023-12-22T02:59:59;8.57;;;4.13;;
30301;SDS011;17111;52.130;5.028;2023-12-22T03:02:26;10.48;;;4.68;;
30301;SDS011;17111;52.130;5.028;2023-12-22T03:04:52;10.05;;;4.65;;
30301;SDS011;17111;52.130;5.028;2023-12-22T03:07:19;10.30;;;3.85;;
30301;SDS011;17111;52.130;5.028;2023-12-22T03:09:45;10.80;;;4.40;;
30301;SDS011;17111;52.130;5.028;2023-12-22T03:12:12;11.15;;;4.53;;
30301;SDS011;17111;52.130;5.028;2023-12-22T03:14:39;8.95;;;3.75;;
30301;SDS011;17111;52.130;5.028;2023-12-22T03:17:06;8.70;;;3.95;;
30301;SDS011;17111;52.130;5.028;2023-12-22T03:19:33;9.57;;;4.32;;
30301;SDS011;17111;52.130;5.028;2023-12-22T03:21:59;12.88;;;4.40;;
30301;SDS011;17111;52.130;5.028;2023-12-22T03:24:26;8.40;;;3.90;;
30301;SDS011;17111;52.130;5.028;2023-12-22T03:26:55;8.43;;;3.53;;
30301;SDS011;17111;52.130;5.028;2023-12-22T03:29:22;9.05;;;4.43;;
30301;SDS011;17111;52.130;5.028;2023-12-22T03:31:48;9.27;;;3.92;;
30301;SDS011;17111;52.130;5.028;2023-12-22T03:34:15;8.65;;;3.58;;
30301;SDS011;17111;52.130;5.028;2023-12-22T03:36:42;9.45;;;3.88;;
30301;SDS011;17111;52.130;5.028;2023-12-22T03:39:08;7.85;;;3.67;;
30301;SDS011;17111;52.130;5.028;2023-12-22T03:41:35;8.38;;;3.10;;
30301;SDS011;17111;52.130;5.028;2023-12-22T03:44:02;10.13;;;3.83;;
30301;SDS011;17111;52.130;5.028;2023-12-22T03:46:28;9.65;;;3.65;;
30301;SDS011;17111;52.130;5.028;2023-12-22T03:48:55;8.48;;;3.80;;
30301;SDS011;17111;52.130;5.028;2023-12-22T03:51:22;8.05;;;3.28;;
30301;SDS011;17111;52.130;5.028;2023-12-22T03:53:48;6.55;;;3.53;;
30301;SDS011;17111;52.130;5.028;2023-12-22T03:56:15;8.13;;;3.33;;
30301;SDS011;17111;52.130;5.028;2023-12-22T03:58:42;10.38;;;2.95;;
30301;SDS011;17111;52.130;5.028;2023-12-22T04:01:08;7.82;;;3.40;;
30301;SDS011;17111;52.130;5.028;2023-12-22T04:03:35;11.35;;;3.30;;
30301;SDS011;17111;52.130;5.028;2023-12-22T04:06:02;8.30;;;3.38;;
30301;SDS011;17111;52.130;5.028;2023-12-22T04:08:30;6.20;;;2.42;;
30301;SDS011;17111;52.130;5.028;2023-12-22T04:10:56;6.63;;;3.03;;
30301;SDS011;17111;52.130;5.028;2023-12-22T04:13:23;7.30;;;3.63;;
30301;SDS011;17111;52.130;5.028;2023-12-22T04:15:50;10.88;;;3.45;;
30301;SDS011;17111;52.130;5.028;2023-12-22T04:18:16;6.63;;;2.97;;
30301;SDS011;17111;52.130;5.028;2023-12-22T04:20:43;9.52;;;3.17;;
30301;SDS011;17111;52.130;5.028;2023-12-22T04:23:10;6.32;;;2.88;;
30301;SDS011;17111;52.130;5.028;2023-12-22T04:25:36;8.27;;;2.85;;
30301;SDS011;17111;52.130;5.028;2023-12-22T04:28:03;9.27;;;3.40;;
30301;SDS011;17111;52.130;5.028;2023-12-22T04:30:29;7.47;;;2.42;;
30301;SDS011;17111;52.130;5.028;2023-12-22T04:32:59;6.15;;;2.60;;
30301;SDS011;17111;52.130;5.028;2023-12-22T04:35:26;8.35;;;2.95;;
30301;SDS011;17111;52.130;5.028;2023-12-22T04:37:53;9.82;;;3.22;;
30301;SDS011;17111;52.130;5.028;2023-12-22T04:40:20;8.88;;;2.50;;
30301;SDS011;17111;52.130;5.028;2023-12-22T04:42:46;6.00;;;2.30;;
30301;SDS011;17111;52.130;5.028;2023-12-22T04:45:13;6.25;;;2.35;;
30301;SDS011;17111;52.130;5.028;2023-12-22T04:47:40;7.13;;;2.67;;
30301;SDS011;17111;52.130;5.028;2023-12-22T04:50:06;8.70;;;3.03;;
30301;SDS011;17111;52.130;5.028;2023-12-22T04:52:33;7.65;;;2.33;;
30301;SDS011;17111;52.130;5.028;2023-12-22T04:55:00;6.38;;;2.63;;
30301;SDS011;17111;52.130;5.028;2023-12-22T04:57:26;11.07;;;2.75;;
30301;SDS011;17111;52.130;5.028;2023-12-22T04:59:53;8.07;;;2.85;;
30301;SDS011;17111;52.130;5.028;2023-12-22T05:02:20;8.60;;;2.55;;
30301;SDS011;17111;52.130;5.028;2023-12-22T05:04:46;7.88;;;2.53;;
30301;SDS011;17111;52.130;5.028;2023-12-22T05:07:13;6.93;;;2.63;;
30301;SDS011;17111;52.130;5.028;2023-12-22T05:09:42;8.07;;;2.42;;
30301;SDS011;17111;52.130;5.028;2023-12-22T05:12:09;7.72;;;2.38;;
30301;SDS011;17111;52.130;5.028;2023-12-22T05:14:35;8.05;;;2.20;;
30301;SDS011;17111;52.130;5.028;2023-12-22T05:17:02;6.80;;;2.13;;
30301;SDS011;17111;52.130;5.028;2023-12-22T05:19:29;5.18;;;1.92;;
30301;SDS011;17111;52.130;5.028;2023-12-22T05:21:55;6.05;;;2.47;;
30301;SDS011;17111;52.130;5.028;2023-12-22T05:24:23;5.75;;;2.35;;
30301;SDS011;17111;52.130;5.028;2023-12-22T05:26:49;6.25;;;2.55;;
30301;SDS011;17111;52.130;5.028;2023-12-22T05:29:16;9.43;;;3.17;;
30301;SDS011;17111;52.130;5.028;2023-12-22T05:31:43;7.18;;;2.35;;
30301;SDS011;17111;52.130;5.028;2023-12-22T05:34:10;7.40;;;2.38;;
30301;SDS011;17111;52.130;5.028;2023-12-22T05:36:37;5.63;;;2.33;;
30301;SDS011;17111;52.130;5.028;2023-12-22T05:39:03;5.70;;;2.08;;
30301;SDS011;17111;52.130;5.028;2023-12-22T05:41:30;5.95;;;2.20;;
30301;SDS011;17111;52.130;5.028;2023-12-22T05:44:00;5.47;;;2.28;;
30301;SDS011;17111;52.130;5.028;2023-12-22T05:46:27;3.60;;;1.92;;
30301;SDS011;17111;52.130;5.028;2023-12-22T05:48:54;7.03;;;2.33;;
30301;SDS011;17111;52.130;5.028;2023-12-22T05:51:24;5.75;;;2.20;;
30301;SDS011;17111;52.130;5.028;2023-12-22T05:53:51;5.45;;;2.17;;
30301;SDS011;17111;52.130;5.028;2023-12-22T05:56:20;5.85;;;2.03;;
30301;SDS011;17111;52.130;5.028;2023-12-22T05:58:48;7.90;;;2.30;;
30301;SDS011;17111;52.130;5.028;2023-12-22T06:01:17;4.75;;;2.05;;
30301;SDS011;17111;52.130;5.028;2023-12-22T06:03:45;7.93;;;2.60;;
30301;SDS011;17111;52.130;5.028;2023-12-22T06:06:12;7.45;;;2.38;;
30301;SDS011;17111;52.130;5.028;2023-12-22T06:08:39;7.90;;;2.25;;
30301;SDS011;17111;52.130;5.028;2023-12-22T06:11:06;7.47;;;2.53;;
30301;SDS011;17111;52.130;5.028;2023-12-22T06:13:33;6.90;;;2.17;;
30301;SDS011;17111;52.130;5.028;2023-12-22T06:15:59;7.53;;;2.40;;
30301;SDS011;17111;52.130;5.028;2023-12-22T06:18:26;7.45;;;2.22;;
30301;SDS011;17111;52.130;5.028;2023-12-22T06:20:53;8.00;;;2.20;;
30301;SDS011;17111;52.130;5.028;2023-12-22T06:23:20;5.82;;;1.70;;
30301;SDS011;17111;52.130;5.028;2023-12-22T06:25:47;4.22;;;1.98;;
30301;SDS011;17111;52.130;5.028;2023-12-22T06:28:14;9.00;;;2.70;;
30301;SDS011;17111;52.130;5.028;2023-12-22T06:30:43;7.72;;;2.40;;
30301;SDS011;17111;52.130;5.028;2023-12-22T06:33:10;7.38;;;2.22;;
30301;SDS011;17111;52.130;5.028;2023-12-22T06:35:37;8.27;;;2.65;;
30301;SDS011;17111;52.130;5.028;2023-12-22T06:38:07;7.32;;;2.90;;
30301;SDS011;17111;52.130;5.028;2023-12-22T06:40:34;8.05;;;2.83;;
30301;SDS011;17111;52.130;5.028;2023-12-22T06:43:01;8.02;;;2.40;;
30301;SDS011;17111;52.130;5.028;2023-12-22T06:45:27;6.63;;;2.33;;
30301;SDS011;17111;52.130;5.028;2023-12-22T06:47:54;9.05;;;3.30;;
30301;SDS011;17111;52.130;5.028;2023-12-22T06:50:22;9.82;;;3.10;;
30301;SDS011;17111;52.130;5.028;2023-12-22T06:52:48;7.72;;;2.85;;
30301;SDS011;17111;52.130;5.028;2023-12-22T06:55:16;6.82;;;2.63;;
30301;SDS011;17111;52.130;5.028;2023-12-22T06:57:43;9.38;;;3.20;;
30301;SDS011;17111;52.130;5.028;2023-12-22T07:00:11;8.75;;;2.70;;
30301;SDS011;17111;52.130;5.028;2023-12-22T07:02:38;8.43;;;2.60;;
30301;SDS011;17111;52.130;5.028;2023-12-22T07:07:50;8.55;;;2.88;;
30301;SDS011;17111;52.130;5.028;2023-12-22T07:10:17;8.95;;;3.10;;
30301;SDS011;17111;52.130;5.028;2023-12-22T07:12:44;10.23;;;3.03;;
30301;SDS011;17111;52.130;5.028;2023-12-22T07:15:11;10.35;;;3.47;;
30301;SDS011;17111;52.130;5.028;2023-12-22T07:17:37;9.68;;;3.28;;
30301;SDS011;17111;52.130;5.028;2023-12-22T07:20:04;12.60;;;3.50;;
30301;SDS011;17111;52.130;5.028;2023-12-22T07:22:32;10.77;;;3.42;;
30301;SDS011;17111;52.130;5.028;2023-12-22T07:24:59;6.68;;;2.95;;
30301;SDS011;17111;52.130;5.028;2023-12-22T07:27:25;11.63;;;3.25;;
30301;SDS011;17111;52.130;5.028;2023-12-22T07:29:53;11.02;;;2.90;;
30301;SDS011;17111;52.130;5.028;2023-12-22T07:32:20;8.70;;;2.97;;
30301;SDS011;17111;52.130;5.028;2023-12-22T07:34:47;11.45;;;3.22;;
30301;SDS011;17111;52.130;5.028;2023-12-22T07:37:13;9.38;;;3.17;;
30301;SDS011;17111;52.130;5.028;2023-12-22T07:39:40;10.95;;;3.10;;
30301;SDS011;17111;52.130;5.028;2023-12-22T07:42:08;11.93;;;3.33;;
30301;SDS011;17111;52.130;5.028;2023-12-22T07:44:34;12.27;;;3.90;;
30301;SDS011;17111;52.130;5.028;2023-12-22T07:47:01;9.70;;;3.47;;
30301;SDS011;17111;52.130;5.028;2023-12-22T07:49:29;11.80;;;3.33;;
30301;SDS011;17111;52.130;5.028;2023-12-22T07:51:57;9.50;;;3.08;;
30301;SDS011;17111;52.130;5.028;2023-12-22T07:54:24;11.38;;;3.45;;
30301;SDS011;17111;52.130;5.028;2023-12-22T07:56:52;10.05;;;2.90;;
30301;SDS011;17111;52.130;5.028;2023-12-22T07:59:18;12.27;;;3.35;;
30301;SDS011;17111;52.130;5.028;2023-12-22T08:01:56;11.07;;;4.10;;
30301;SDS011;17111;52.130;5.028;2023-12-22T08:04:23;11.25;;;3.58;;
30301;SDS011;17111;52.130;5.028;2023-12-22T08:06:50;9.85;;;3.65;;
30301;SDS011;17111;52.130;5.028;2023-12-22T08:09:16;10.05;;;3.72;;
30301;SDS011;17111;52.130;5.028;2023-12-22T08:11:43;10.48;;;3.45;;
30301;SDS011;17111;52.130;5.028;2023-12-22T08:14:12;12.45;;;3.45;;
30301;SDS011;17111;52.130;5.028;2023-12-22T08:16:39;11.20;;;3.42;;
30301;SDS011;17111;52.130;5.028;2023-12-22T08:19:06;10.43;;;3.40;;
30301;SDS011;17111;52.130;5.028;2023-12-22T08:21:33;9.75;;;3.13;;
30301;SDS011;17111;52.130;5.028;2023-12-22T08:24:11;14.00;;;3.13;;
30301;SDS011;17111;52.130;5.028;2023-12-22T08:26:47;8.82;;;2.90;;
30301;SDS011;17111;52.130;5.028;2023-12-22T08:29:14;8.52;;;3.28;;
30301;SDS011;17111;52.130;5.028;2023-12-22T08:31:42;10.05;;;3.60;;
30301;SDS011;17111;52.130;5.028;2023-12-22T08:34:10;8.82;;;3.15;;
30301;SDS011;17111;52.130;5.028;2023-12-22T08:36:37;10.77;;;3.05;;
30301;SDS011;17111;52.130;5.028;2023-12-22T08:39:04;8.93;;;2.90;;
30301;SDS011;17111;52.130;5.028;2023-12-22T08:41:34;9.38;;;2.75;;
30301;SDS011;17111;52.130;5.028;2023-12-22T08:44:04;9.40;;;3.42;;
30301;SDS011;17111;52.130;5.028;2023-12-22T08:46:32;7.93;;;2.78;;
30301;SDS011;17111;52.130;5.028;2023-12-22T08:48:59;9.18;;;3.60;;
30301;SDS011;17111;52.130;5.028;2023-12-22T08:51:26;9.70;;;2.80;;
30301;SDS011;17111;52.130;5.028;2023-12-22T08:53:53;10.18;;;3.33;;
30301;SDS011;17111;52.130;5.028;2023-12-22T08:56:24;9.50;;;3.05;;
30301;SDS011;17111;52.130;5.028;2023-12-22T08:58:51;13.40;;;3.10;;
30301;SDS011;17111;52.130;5.028;2023-12-22T09:01:21;7.53;;;2.85;;
30301;SDS011;17111;52.130;5.028;2023-12-22T09:03:49;7.78;;;2.85;;
30301;SDS011;17111;52.130;5.028;2023-12-22T09:08:43;10.13;;;3.35;;
30301;SDS011;17111;52.130;5.028;2023-12-22T09:11:11;8.93;;;3.20;;
30301;SDS011;17111;52.130;5.028;2023-12-22T09:13:38;9.65;;;3.83;;
30301;SDS011;17111;52.130;5.028;2023-12-22T09:16:05;13.55;;;5.95;;
30301;SDS011;17111;52.130;5.028;2023-12-22T09:18:31;14.52;;;6.60;;
30301;SDS011;17111;52.130;5.028;2023-12-22T09:20:59;14.65;;;6.88;;
30301;SDS011;17111;52.130;5.028;2023-12-22T09:23:26;16.10;;;7.90;;
30301;SDS011;17111;52.130;5.028;2023-12-22T09:25:53;19.50;;;9.13;;
30301;SDS011;17111;52.130;5.028;2023-12-22T09:28:19;20.50;;;9.70;;
30301;SDS011;17111;52.130;5.028;2023-12-22T09:30:46;20.67;;;10.32;;
30301;SDS011;17111;52.130;5.028;2023-12-22T09:33:13;18.33;;;9.95;;
30301;SDS011;17111;52.130;5.028;2023-12-22T09:35:40;20.67;;;10.68;;
30301;SDS011;17111;52.130;5.028;2023-12-22T09:38:08;23.27;;;11.55;;
30301;SDS011;17111;52.130;5.028;2023-12-22T09:40:36;20.10;;;11.82;;
30301;SDS011;17111;52.130;5.028;2023-12-22T09:43:03;25.27;;;11.73;;
30301;SDS011;17111;52.130;5.028;2023-12-22T09:45:32;22.95;;;11.35;;
30301;SDS011;17111;52.130;5.028;2023-12-22T09:48:00;23.25;;;12.43;;
30301;SDS011;17111;52.130;5.028;2023-12-22T09:50:27;24.20;;;12.73;;
30301;SDS011;17111;52.130;5.028;2023-12-22T09:52:55;25.10;;;13.70;;
30301;SDS011;17111;52.130;5.028;2023-12-22T09:55:21;22.05;;;13.02;;
30301;SDS011;17111;52.130;5.028;2023-12-22T09:57:49;32.78;;;15.23;;
30301;SDS011;17111;52.130;5.028;2023-12-22T10:00:17;32.08;;;16.98;;
30301;SDS011;17111;52.130;5.028;2023-12-22T10:02:44;30.17;;;17.35;;
30301;SDS011;17111;52.130;5.028;2023-12-22T10:05:12;30.88;;;18.10;;
30301;SDS011;17111;52.130;5.028;2023-12-22T10:07:42;33.97;;;19.00;;
30301;SDS011;17111;52.130;5.028;2023-12-22T10:10:11;34.78;;;20.15;;
30301;SDS011;17111;52.130;5.028;2023-12-22T10:12:38;34.25;;;20.23;;
30301;SDS011;17111;52.130;5.028;2023-12-22T10:15:08;36.80;;;20.60;;
30301;SDS011;17111;52.130;5.028;2023-12-22T10:17:36;37.92;;;21.55;;
30301;SDS011;17111;52.130;5.028;2023-12-22T10:20:03;35.08;;;20.90;;
30301;SDS011;17111;52.130;5.028;2023-12-22T10:22:30;36.95;;;20.92;;
30301;SDS011;17111;52.130;5.028;2023-12-22T10:24:57;37.78;;;21.85;;
30301;SDS011;17111;52.130;5.028;2023-12-22T10:27:24;37.25;;;21.10;;
30301;SDS011;17111;52.130;5.028;2023-12-22T10:29:51;37.58;;;21.42;;
30301;SDS011;17111;52.130;5.028;2023-12-22T10:32:21;32.95;;;20.00;;
30301;SDS011;17111;52.130;5.028;2023-12-22T10:34:48;35.13;;;19.27;;
30301;SDS011;17111;52.130;5.028;2023-12-22T10:37:17;34.28;;;19.40;;
30301;SDS011;17111;52.130;5.028;2023-12-22T10:39:43;33.92;;;19.77;;
30301;SDS011;17111;52.130;5.028;2023-12-22T10:42:14;33.42;;;18.77;;
30301;SDS011;17111;52.130;5.028;2023-12-22T10:44:42;36.50;;;19.77;;
30301;SDS011;17111;52.130;5.028;2023-12-22T10:47:08;30.55;;;17.70;;
30301;SDS011;17111;52.130;5.028;2023-12-22T10:49:36;30.95;;;17.70;;
30301;SDS011;17111;52.130;5.028;2023-12-22T10:52:03;33.15;;;17.70;;
30301;SDS011;17111;52.130;5.028;2023-12-22T10:54:30;29.17;;;16.60;;
30301;SDS011;17111;52.130;5.028;2023-12-22T10:57:00;27.33;;;15.77;;
30301;SDS011;17111;52.130;5.028;2023-12-22T10:59:29;28.98;;;16.08;;
30301;SDS011;17111;52.130;5.028;2023-12-22T11:02:02;28.92;;;16.10;;
30301;SDS011;17111;52.130;5.028;2023-12-22T11:04:30;30.10;;;15.82;;
30301;SDS011;17111;52.130;5.028;2023-12-22T11:07:02;26.15;;;14.57;;
30301;SDS011;17111;52.130;5.028;2023-12-22T11:09:31;26.48;;;14.93;;
30301;SDS011;17111;52.130;5.028;2023-12-22T11:12:01;22.20;;;12.80;;
30301;SDS011;17111;52.130;5.028;2023-12-22T11:14:29;24.88;;;13.35;;
30301;SDS011;17111;52.130;5.028;2023-12-22T11:16:57;23.05;;;14.00;;
30301;SDS011;17111;52.130;5.028;2023-12-22T11:19:27;24.42;;;13.95;;
30301;SDS011;17111;52.130;5.028;2023-12-22T11:21:57;24.55;;;14.68;;
30301;SDS011;17111;52.130;5.028;2023-12-22T11:24:24;27.75;;;16.67;;
30301;SDS011;17111;52.130;5.028;2023-12-22T11:26:54;34.25;;;18.25;;
30301;SDS011;17111;52.130;5.028;2023-12-22T11:29:24;33.53;;;19.17;;
30301;SDS011;17111;52.130;5.028;2023-12-22T11:31:52;38.72;;;22.45;;
30301;SDS011;17111;52.130;5.028;2023-12-22T11:34:25;44.03;;;24.45;;
30301;SDS011;17111;52.130;5.028;2023-12-22T11:36:55;41.50;;;25.52;;
30301;SDS011;17111;52.130;5.028;2023-12-22T11:39:23;45.88;;;25.13;;
30301;SDS011;17111;52.130;5.028;2023-12-22T11:41:51;49.00;;;28.33;;
30301;SDS011;17111;52.130;5.028;2023-12-22T11:44:20;47.05;;;27.02;;
30301;SDS011;17111;52.130;5.028;2023-12-22T11:46:48;50.92;;;28.83;;
30301;SDS011;17111;52.130;5.028;2023-12-22T11:49:14;50.75;;;29.60;;
30301;SDS011;17111;52.130;5.028;2023-12-22T11:51:42;54.10;;;30.17;;
30301;SDS011;17111;52.130;5.028;2023-12-22T11:54:43;55.08;;;31.90;;
30301;SDS011;17111;52.130;5.028;2023-12-22T11:59:55;61.28;;;35.97;;
30301;SDS011;17111;52.130;5.028;2023-12-22T12:02:22;68.68;;;37.28;;
30301;SDS011;17111;52.130;5.028;2023-12-22T12:04:51;64.40;;;38.47;;
30301;SDS011;17111;52.130;5.028;2023-12-22T12:07:36;67.13;;;39.92;;
30301;SDS011;17111;52.130;5.028;2023-12-22T12:10:07;67.13;;;40.15;;
30301;SDS011;17111;52.130;5.028;2023-12-22T12:12:35;71.03;;;41.55;;
30301;SDS011;17111;52.130;5.028;2023-12-22T12:15:20;69.38;;;39.95;;
30301;SDS011;17111;52.130;5.028;2023-12-22T12:17:51;63.63;;;36.78;;
30301;SDS011;17111;52.130;5.028;2023-12-22T12:20:18;63.08;;;37.45;;
30301;SDS011;17111;52.130;5.028;2023-12-22T12:22:48;60.97;;;37.67;;
30301;SDS011;17111;52.130;5.028;2023-12-22T12:25:15;63.42;;;36.47;;
30301;SDS011;17111;52.130;5.028;2023-12-22T12:28:03;59.00;;;34.85;;
30301;SDS011;17111;52.130;5.028;2023-12-22T12:30:31;62.80;;;35.28;;
30301;SDS011;17111;52.130;5.028;2023-12-22T12:32:59;58.17;;;34.13;;
30301;SDS011;17111;52.130;5.028;2023-12-22T12:35:39;53.05;;;31.30;;
30301;SDS011;17111;52.130;5.028;2023-12-22T12:38:12;53.63;;;31.92;;
30301;SDS011;17111;52.130;5.028;2023-12-22T12:40:40;50.35;;;29.60;;
30301;SDS011;17111;52.130;5.028;2023-12-22T12:43:08;53.65;;;30.58;;
30301;SDS011;17111;52.130;5.028;2023-12-22T12:45:34;45.95;;;28.23;;
30301;SDS011;17111;52.130;5.028;2023-12-22T12:48:02;47.28;;;29.02;;
30301;SDS011;17111;52.130;5.028;2023-12-22T12:50:33;45.10;;;26.45;;
30301;SDS011;17111;52.130;5.028;2023-12-22T12:53:00;43.13;;;26.05;;
30301;SDS011;17111;52.130;5.028;2023-12-22T12:55:27;43.95;;;25.75;;
30301;SDS011;17111;52.130;5.028;2023-12-22T12:57:54;42.78;;;26.17;;
30301;SDS011;17111;52.130;5.028;2023-12-22T13:00:29;45.22;;;26.05;;
30301;SDS011;17111;52.130;5.028;2023-12-22T13:03:00;45.53;;;25.13;;
30301;SDS011;17111;52.130;5.028;2023-12-22T13:05:33;43.38;;;24.20;;
30301;SDS011;17111;52.130;5.028;2023-12-22T13:08:07;42.90;;;24.58;;
30301;SDS011;17111;52.130;5.028;2023-12-22T13:10:35;41.38;;;24.27;;
30301;SDS011;17111;52.130;5.028;2023-12-22T13:13:02;39.47;;;24.65;;
30301;SDS011;17111;52.130;5.028;2023-12-22T13:15:29;40.80;;;23.48;;
30301;SDS011;17111;52.130;5.028;2023-12-22T13:17:56;41.00;;;24.30;;
30301;SDS011;17111;52.130;5.028;2023-12-22T13:20:23;37.90;;;23.17;;
30301;SDS011;17111;52.130;5.028;2023-12-22T13:22:51;40.20;;;23.33;;
30301;SDS011;17111;52.130;5.028;2023-12-22T13:25:17;38.90;;;23.50;;
30301;SDS011;17111;52.130;5.028;2023-12-22T13:27:47;38.65;;;22.60;;
30301;SDS011;17111;52.130;5.028;2023-12-22T13:30:31;35.63;;;21.55;;
30301;SDS011;17111;52.130;5.028;2023-12-22T13:33:02;37.40;;;21.88;;
30301;SDS011;17111;52.130;5.028;2023-12-22T13:35:29;38.03;;;22.55;;
30301;SDS011;17111;52.130;5.028;2023-12-22T13:37:56;35.67;;;20.15;;
30301;SDS011;17111;52.130;5.028;2023-12-22T13:40:24;35.25;;;20.15;;
30301;SDS011;17111;52.130;5.028;2023-12-22T13:42:57;39.45;;;19.92;;
30301;SDS011;17111;52.130;5.028;2023-12-22T13:45:25;36.17;;;20.50;;
30301;SDS011;17111;52.130;5.028;2023-12-22T13:47:52;36.75;;;20.85;;
30301;SDS011;17111;52.130;5.028;2023-12-22T13:50:19;43.55;;;24.98;;
30301;SDS011;17111;52.130;5.028;2023-12-22T13:52:50;48.58;;;26.80;;
30301;SDS011;17111;52.130;5.028;2023-12-22T13:55:18;54.53;;;29.02;;
30301;SDS011;17111;52.130;5.028;2023-12-22T13:57:49;61.65;;;32.83;;
30301;SDS011;17111;52.130;5.028;2023-12-22T14:00:26;57.75;;;33.05;;
30301;SDS011;17111;52.130;5.028;2023-12-22T14:02:55;69.47;;;35.28;;
30301;SDS011;17111;52.130;5.028;2023-12-22T14:05:22;62.90;;;35.88;;
30301;SDS011;17111;52.130;5.028;2023-12-22T14:07:49;66.97;;;36.40;;
30301;SDS011;17111;52.130;5.028;2023-12-22T14:10:16;68.00;;;37.38;;
30301;SDS011;17111;52.130;5.028;2023-12-22T14:12:43;68.88;;;38.17;;
30301;SDS011;17111;52.130;5.028;2023-12-22T14:15:10;71.15;;;40.03;;
30301;SDS011;17111;52.130;5.028;2023-12-22T14:17:37;71.95;;;39.88;;
30301;SDS011;17111;52.130;5.028;2023-12-22T14:20:05;71.50;;;40.08;;
30301;SDS011;17111;52.130;5.028;2023-12-22T14:22:34;69.63;;;38.40;;
30301;SDS011;17111;52.130;5.028;2023-12-22T14:25:01;59.75;;;33.03;;
30301;SDS011;17111;52.130;5.028;2023-12-22T14:27:27;61.45;;;32.42;;
30301;SDS011;17111;52.130;5.028;2023-12-22T14:29:54;59.53;;;29.48;;
30301;SDS011;17111;52.130;5.028;2023-12-22T14:32:20;52.22;;;28.80;;
30301;SDS011;17111;52.130;5.028;2023-12-22T14:34:47;52.22;;;27.50;;
30301;SDS011;17111;52.130;5.028;2023-12-22T14:37:14;48.47;;;26.55;;
30301;SDS011;17111;52.130;5.028;2023-12-22T14:39:44;50.53;;;25.77;;
30301;SDS011;17111;52.130;5.028;2023-12-22T14:42:12;44.92;;;22.70;;
30301;SDS011;17111;52.130;5.028;2023-12-22T14:44:38;45.20;;;23.30;;
30301;SDS011;17111;52.130;5.028;2023-12-22T14:47:05;40.95;;;21.58;;
30301;SDS011;17111;52.130;5.028;2023-12-22T14:49:35;41.78;;;22.48;;
30301;SDS011;17111;52.130;5.028;2023-12-22T14:52:02;42.40;;;20.30;;
30301;SDS011;17111;52.130;5.028;2023-12-22T14:54:28;34.30;;;17.83;;